Time;durP1;ratioP1;P1;durP2;ratioP2;P2;SDS_P1;SDS_P2;PMS_P1;PMS_P2;Temp;Humidity;BMP_temperature;BMP_pressure;BME280_temperature;BME280_humidity;BME280_pressure;Samples;Min_cycle;Max_cycle;Signal;HPM_P1;HPM_P2
2020/12/29 05:18:55;;;;;;;3.83;2.50;;;0.90;99.90;;;;;;5591350;23;20528;-69
2020/12/29 05:21:26;;;;;;;4.82;2.78;;;0.90;99.90;;;;;;4975064;28;20053;-69
2020/12/29 05:23:53;;;;;;;4.50;3.00;;;0.90;99.90;;;;;;4975263;28;20497;-69
2020/12/29 05:26:22;;;;;;;4.10;3.30;;;0.90;99.90;;;;;;4975441;28;20034;-69
2020/12/29 05:28:47;;;;;;;4.68;2.80;;;1.00;99.90;;;;;;4975054;28;20031;-69
2020/12/29 05:31:15;;;;;;;3.60;2.13;;;1.00;99.90;;;;;;4975025;28;20033;-76
2020/12/29 05:33:41;;;;;;;3.75;2.92;;;1.00;99.90;;;;;;4974792;28;20035;-75
2020/12/29 05:36:08;;;;;;;4.43;3.20;;;1.00;99.90;;;;;;4975040;28;20030;-76
2020/12/29 05:38:41;;;;;;;3.53;2.78;;;1.00;99.90;;;;;;4974931;28;20105;-79
2020/12/29 05:41:13;;;;;;;2.95;2.63;;;1.00;99.90;;;;;;4974910;28;20105;-73
2020/12/29 05:43:39;;;;;;;3.10;2.58;;;1.10;99.90;;;;;;4974953;28;20046;-75
2020/12/29 05:46:07;;;;;;;3.75;2.50;;;1.20;99.90;;;;;;4974799;28;20030;-76
2020/12/29 05:48:33;;;;;;;3.95;2.78;;;1.10;99.90;;;;;;4974227;28;20031;-74
2020/12/29 05:51:13;;;;;;;3.58;2.58;;;1.10;99.90;;;;;;4974141;28;20042;-75
2020/12/29 05:53:39;;;;;;;4.67;2.93;;;1.10;99.90;;;;;;4974010;28;20027;-77
2020/12/29 05:56:07;;;;;;;4.85;3.30;;;1.10;99.90;;;;;;4974054;28;20026;-78
2020/12/29 05:58:34;;;;;;;5.47;3.33;;;1.10;99.90;;;;;;4973779;28;20050;-78
2020/12/29 06:01:01;;;;;;;6.80;3.00;;;1.10;99.90;;;;;;4974240;28;20375;-78
2020/12/29 06:03:29;;;;;;;3.83;2.55;;;1.10;99.90;;;;;;4974013;28;20359;-78
2020/12/29 06:05:58;;;;;;;5.32;3.20;;;1.10;99.90;;;;;;4973694;28;20510;-78
2020/12/29 06:08:27;;;;;;;4.03;3.03;;;1.10;99.90;;;;;;4973692;28;20521;-78
2020/12/29 06:10:59;;;;;;;4.78;2.83;;;1.20;99.90;;;;;;4973630;28;20034;-76
2020/12/29 06:13:36;;;;;;;3.80;2.83;;;1.10;99.90;;;;;;4973677;28;20065;-76
2020/12/29 06:16:03;;;;;;;3.90;2.97;;;1.10;99.90;;;;;;4971727;28;20022;-76
2020/12/29 06:18:36;;;;;;;6.13;2.80;;;1.10;99.90;;;;;;4970713;28;20066;-75
2020/12/29 06:21:07;;;;;;;5.18;2.67;;;1.20;99.90;;;;;;4957596;28;20019;-75
2020/12/29 06:23:36;;;;;;;;;;;1.10;99.90;;;;;;4955544;28;20442;-74
2020/12/29 06:26:05;;;;;;;4.50;2.65;;;1.10;99.90;;;;;;4955212;28;19907;-72
2020/12/29 06:28:41;;;;;;;3.97;2.72;;;1.20;99.90;;;;;;4954727;29;20498;-77
2020/12/29 06:31:10;;;;;;;5.40;2.97;;;1.20;99.90;;;;;;4954945;28;20603;-77
2020/12/29 06:33:38;;;;;;;5.05;3.30;;;1.20;99.90;;;;;;4954650;29;20023;-77
2020/12/29 06:36:06;;;;;;;4.22;2.92;;;1.30;99.90;;;;;;4954964;28;20074;-77
2020/12/29 06:38:33;;;;;;;5.90;3.85;;;1.30;99.90;;;;;;4954558;29;20426;-77
2020/12/29 06:41:00;;;;;;;5.22;3.42;;;1.20;99.90;;;;;;4954602;29;20574;-77
2020/12/29 06:43:26;;;;;;;5.32;3.80;;;1.20;99.90;;;;;;4954464;29;20109;-77
2020/12/29 06:45:52;;;;;;;6.55;3.92;;;1.20;99.90;;;;;;4954489;28;20050;-77
2020/12/29 06:48:19;;;;;;;6.32;4.00;;;1.20;99.90;;;;;;4954408;28;20038;-77
2020/12/29 06:50:46;;;;;;;8.07;4.10;;;1.20;99.90;;;;;;4954492;28;20030;-77
2020/12/29 06:53:18;;;;;;;4.70;3.90;;;1.20;99.90;;;;;;4954013;28;20028;-77
2020/12/29 06:55:49;;;;;;;8.00;4.57;;;1.20;99.90;;;;;;4954162;29;20033;-77
2020/12/29 06:58:34;;;;;;;6.32;4.30;;;1.20;99.90;;;;;;4954310;28;20038;-77
2020/12/29 07:01:21;;;;;;;6.70;4.32;;;1.20;99.90;;;;;;4954466;29;20023;-77
2020/12/29 07:03:58;;;;;;;7.28;5.47;;;1.20;99.90;;;;;;4954054;29;20034;-74
2020/12/29 07:06:28;;;;;;;7.95;4.78;;;1.20;99.90;;;;;;4954235;28;20027;-85
2020/12/29 07:09:01;;;;;;;11.10;5.07;;;1.20;99.90;;;;;;4954066;29;20023;-79
2020/12/29 07:11:26;;;;;;;6.55;4.55;;;1.40;99.90;;;;;;4954491;28;20031;-81
2020/12/29 07:13:52;;;;;;;7.07;4.65;;;2.20;99.90;;;;;;4954391;28;20537;-81
2020/12/29 07:16:23;;;;;;;8.80;5.60;;;2.10;99.90;;;;;;4954092;28;20023;-77
2020/12/29 07:18:49;;;;;;;;;;;1.80;99.90;;;;;;4954164;28;20518;-77
2020/12/29 07:21:35;;;;;;;6.40;4.55;;;1.90;99.90;;;;;;4954229;28;19961;-76
2020/12/29 07:24:05;;;;;;;7.40;5.53;;;1.80;99.90;;;;;;4961326;28;20045;-77
2020/12/29 07:26:37;;;;;;;9.60;5.80;;;1.60;99.90;;;;;;4960542;28;20031;-81
2020/12/29 07:29:05;;;;;;;9.80;5.47;;;1.50;99.90;;;;;;4962664;28;20058;-86
2020/12/29 07:31:34;;;;;;;6.85;4.97;;;1.40;99.90;;;;;;4974162;28;20474;-83
2020/12/29 07:34:01;;;;;;;10.20;5.90;;;1.40;99.90;;;;;;4972958;28;20023;-79
2020/12/29 07:36:27;;;;;;;8.68;5.63;;;1.40;99.90;;;;;;4972595;28;20027;-76
2020/12/29 07:38:55;;;;;;;7.35;5.05;;;1.30;99.90;;;;;;4975423;28;20026;-76
2020/12/29 07:41:21;;;;;;;9.02;5.05;;;1.30;99.90;;;;;;4976257;28;20041;-76
2020/12/29 07:43:47;;;;;;;8.95;5.60;;;1.30;99.90;;;;;;4976463;28;20030;-77
2020/12/29 07:46:13;;;;;;;10.23;5.63;;;1.30;99.90;;;;;;4972734;28;20023;-77
2020/12/29 07:48:40;;;;;;;8.07;5.38;;;1.30;99.90;;;;;;4972598;28;20081;-76
2020/12/29 07:51:07;;;;;;;9.23;6.07;;;1.30;99.90;;;;;;4976072;28;20022;-76
2020/12/29 07:53:33;;;;;;;7.88;5.50;;;1.30;99.90;;;;;;4990385;28;20057;-76
2020/12/29 07:55:58;;;;;;;7.00;4.95;;;1.30;99.90;;;;;;4992188;28;20031;-76
2020/12/29 07:58:24;;;;;;;9.07;5.30;;;1.30;99.90;;;;;;4992066;28;20084;-75
2020/12/29 08:00:51;;;;;;;8.60;5.90;;;1.30;99.90;;;;;;4965976;28;20031;-75
2020/12/29 08:03:20;;;;;;;6.45;4.90;;;1.20;99.90;;;;;;4953629;28;20078;-76
2020/12/29 08:05:46;;;;;;;10.90;5.55;;;1.20;99.90;;;;;;4957279;28;20019;-78
2020/12/29 08:08:15;;;;;;;7.97;5.32;;;1.20;99.90;;;;;;4957083;28;20027;-78
2020/12/29 08:10:47;;;;;;;8.07;5.22;;;1.30;99.90;;;;;;4956920;29;20025;-76
2020/12/29 08:13:17;;;;;;;9.80;5.45;;;1.20;99.90;;;;;;4957089;29;20165;-75
2020/12/29 08:15:44;;;;;;;9.50;5.32;;;1.20;99.90;;;;;;4956791;28;20038;-75
2020/12/29 08:18:13;;;;;;;8.20;5.90;;;1.30;99.90;;;;;;4956789;28;20117;-75
2020/12/29 08:20:56;;;;;;;9.50;5.97;;;1.20;99.90;;;;;;4956786;29;20063;-75
2020/12/29 08:23:29;;;;;;;9.60;5.95;;;1.20;99.90;;;;;;4970415;28;20043;-76
2020/12/29 08:25:55;;;;;;;9.95;6.25;;;1.20;99.90;;;;;;4976074;28;20027;-74
2020/12/29 08:28:24;;;;;;;11.85;6.28;;;1.30;99.90;;;;;;4976355;28;20031;-78
2020/12/29 08:30:50;;;;;;;8.68;5.72;;;1.30;99.90;;;;;;4976152;28;20109;-79
2020/12/29 08:33:19;;;;;;;8.43;5.03;;;1.30;99.90;;;;;;4976160;28;20023;-78
2020/12/29 08:35:47;;;;;;;11.82;5.60;;;1.30;99.90;;;;;;4967773;28;20062;-78
2020/12/29 08:38:31;;;;;;;9.50;5.50;;;1.30;99.90;;;;;;4976261;28;20030;-78
2020/12/29 08:41:06;;;;;;;12.93;6.47;;;1.20;99.90;;;;;;4976111;28;20081;-80
2020/12/29 08:43:45;;;;;;;8.02;5.97;;;1.30;99.90;;;;;;4975848;28;20564;-81
2020/12/29 08:46:14;;;;;;;10.73;6.47;;;1.30;99.90;;;;;;4970888;28;20081;-79
2020/12/29 08:48:41;;;;;;;9.73;6.50;;;1.30;99.90;;;;;;4959145;28;20086;-76
2020/12/29 08:51:18;;;;;;;10.10;5.80;;;1.30;99.90;;;;;;4956545;29;20110;-76
2020/12/29 08:53:43;;;;;;;10.43;5.95;;;1.30;99.90;;;;;;4956724;28;20031;-76
2020/12/29 08:56:25;;;;;;;11.93;5.80;;;1.30;99.90;;;;;;4956513;29;20471;-76
2020/12/29 08:58:52;;;;;;;11.75;6.22;;;1.30;99.90;;;;;;4974431;28;20364;-78
2020/12/29 09:01:34;;;;;;;10.10;5.97;;;1.40;99.90;;;;;;4975607;28;20037;-78
2020/12/29 09:04:28;;;;;;;9.70;6.15;;;1.40;99.90;;;;;;4975822;28;20019;-82
2020/12/29 09:06:58;;;;;;;10.27;6.68;;;1.40;99.90;;;;;;4964485;28;20027;-82
2020/12/29 09:09:24;;;;;;;12.83;6.07;;;1.40;99.90;;;;;;4965116;28;20466;-82
2020/12/29 09:12:13;;;;;;;8.10;5.45;;;1.30;99.90;;;;;;4964036;28;20285;-78
2020/12/29 09:14:56;;;;;;;8.18;5.20;;;1.40;99.90;;;;;;4960020;28;20122;-80
2020/12/29 09:17:53;;;;;;;7.88;5.45;;;1.60;99.90;;;;;;4970376;28;20030;-83
2020/12/29 09:20:25;;;;;;;11.38;5.30;;;1.90;99.90;;;;;;4958695;28;20047;-78
2020/12/29 09:23:03;;;;;;;12.95;4.97;;;1.70;99.90;;;;;;4955934;29;20442;-85
2020/12/29 09:25:32;;;;;;;9.00;5.57;;;1.60;99.90;;;;;;4956265;28;20063;-85
2020/12/29 09:28:18;;;;;;;6.55;4.60;;;1.50;99.90;;;;;;4956166;28;20102;-85
2020/12/29 09:31:07;;;;;;;9.40;4.93;;;1.50;99.90;;;;;;4955700;28;20031;-85
2020/12/29 09:33:34;;;;;;;10.77;5.18;;;1.40;99.90;;;;;;4955888;29;20027;-85
2020/12/29 09:36:04;;;;;;;8.90;4.97;;;1.40;99.90;;;;;;4958737;28;20027;-90
2020/12/29 09:38:30;;;;;;;11.07;5.25;;;1.40;99.90;;;;;;4973856;28;20023;-90
2020/12/29 09:40:56;;;;;;;9.80;5.65;;;1.40;99.90;;;;;;4974367;28;20046;-91
2020/12/29 09:43:22;;;;;;;9.55;5.72;;;1.40;99.90;;;;;;4966137;28;20093;-86
2020/12/29 09:45:49;;;;;;;7.03;4.85;;;1.40;99.90;;;;;;4958954;28;20479;-87
2020/12/29 09:48:16;;;;;;;8.90;5.10;;;1.40;99.90;;;;;;4962789;28;20027;-88
2020/12/29 09:50:42;;;;;;;9.13;5.55;;;1.40;99.90;;;;;;4975061;28;20094;-87
2020/12/29 09:53:09;;;;;;;10.18;6.03;;;1.40;99.90;;;;;;4971263;28;20033;-89
2020/12/29 09:55:34;;;;;;;9.23;5.63;;;1.30;99.90;;;;;;4975807;28;20086;-89
2020/12/29 09:58:00;;;;;;;7.68;5.55;;;1.30;99.90;;;;;;4975900;28;20031;-91
2020/12/29 10:00:26;;;;;;;11.98;5.68;;;1.30;99.90;;;;;;4974928;28;20026;-82
2020/12/29 10:02:52;;;;;;;8.77;4.63;;;1.30;99.90;;;;;;4974474;28;20043;-87
2020/12/29 10:05:18;;;;;;;8.15;4.88;;;1.30;99.90;;;;;;4968756;28;20050;-83
2020/12/29 10:07:47;;;;;;;7.38;5.47;;;1.30;99.90;;;;;;4974529;28;20037;-84
2020/12/29 10:10:13;;;;;;;10.40;6.07;;;1.30;99.90;;;;;;4974827;28;20030;-84
2020/12/29 10:12:39;;;;;;;8.10;5.13;;;1.30;99.90;;;;;;4974360;28;20109;-85
2020/12/29 10:15:05;;;;;;;11.27;5.15;;;1.30;99.90;;;;;;4974722;28;20094;-81
2020/12/29 10:17:34;;;;;;;8.05;5.38;;;1.30;99.90;;;;;;4974711;28;20104;-82
2020/12/29 10:19:59;;;;;;;12.02;6.55;;;1.30;99.90;;;;;;4974022;28;20051;-81
2020/12/29 10:22:32;;;;;;;10.38;6.40;;;1.30;99.90;;;;;;4974501;28;20494;-82
2020/12/29 10:24:58;;;;;;;12.98;6.38;;;1.30;99.90;;;;;;4974030;28;20390;-82
2020/12/29 10:27:24;;;;;;;9.93;6.70;;;1.30;99.90;;;;;;4973508;28;20027;-83
2020/12/29 10:29:50;;;;;;;16.88;6.18;;;1.30;99.90;;;;;;4973877;28;20023;-84
2020/12/29 10:32:20;;;;;;;11.18;6.32;;;1.30;99.90;;;;;;4974051;28;20525;-82
2020/12/29 10:34:46;;;;;;;11.73;6.60;;;1.30;99.90;;;;;;4972717;28;20106;-84
2020/12/29 10:37:12;;;;;;;9.82;5.72;;;1.30;99.90;;;;;;4965570;28;20023;-84
2020/12/29 10:39:38;;;;;;;8.05;5.45;;;1.30;99.90;;;;;;4956376;29;20023;-83
2020/12/29 10:42:04;;;;;;;12.60;6.03;;;1.30;99.90;;;;;;4954536;29;20545;-82
2020/12/29 10:44:30;;;;;;;8.98;5.40;;;1.30;99.90;;;;;;4954795;28;20081;-82
2020/12/29 10:46:56;;;;;;;11.07;5.85;;;1.30;99.90;;;;;;4954404;29;20468;-82
2020/12/29 10:49:22;;;;;;;12.70;5.55;;;1.30;99.90;;;;;;4954624;29;20086;-82
2020/12/29 10:51:49;;;;;;;11.93;5.97;;;1.30;99.90;;;;;;4954482;29;20431;-83
2020/12/29 10:54:14;;;;;;;9.85;5.03;;;1.30;99.90;;;;;;4954665;28;20035;-83
2020/12/29 10:56:40;;;;;;;8.52;4.72;;;1.30;99.90;;;;;;4954775;28;20039;-83
2020/12/29 10:59:06;;;;;;;11.15;5.88;;;1.30;99.90;;;;;;4962538;28;20394;-81
2020/12/29 11:01:31;;;;;;;9.00;5.68;;;1.30;99.90;;;;;;4956628;28;20044;-79
2020/12/29 11:03:57;;;;;;;7.45;4.47;;;1.30;99.90;;;;;;4954448;29;20047;-81
2020/12/29 11:06:23;;;;;;;9.68;4.95;;;1.30;99.90;;;;;;4954172;28;20067;-81
2020/12/29 11:08:50;;;;;;;8.13;4.68;;;1.30;99.90;;;;;;4954067;28;20034;-81
2020/12/29 11:11:17;;;;;;;8.77;5.95;;;1.30;99.90;;;;;;4954073;28;20027;-81
2020/12/29 11:13:43;;;;;;;9.00;4.45;;;1.30;99.90;;;;;;4954222;29;20027;-81
2020/12/29 11:16:15;;;;;;;10.75;4.80;;;1.30;99.90;;;;;;4954156;29;20019;-82
2020/12/29 11:18:42;;;;;;;8.82;5.25;;;1.30;99.90;;;;;;4953704;29;20137;-84
2020/12/29 11:21:08;;;;;;;8.63;5.25;;;1.30;99.90;;;;;;4953974;29;20032;-81
2020/12/29 11:23:34;;;;;;;7.25;5.25;;;1.30;99.90;;;;;;4954167;29;20027;-80
2020/12/29 11:25:59;;;;;;;9.18;4.57;;;1.30;99.90;;;;;;4954315;29;20035;-80
2020/12/29 11:28:25;;;;;;;5.93;4.40;;;1.30;99.90;;;;;;4954000;29;20035;-82
2020/12/29 11:30:51;;;;;;;6.45;4.32;;;1.30;99.90;;;;;;4953802;29;20030;-81
2020/12/29 11:33:17;;;;;;;6.78;4.03;;;1.30;99.90;;;;;;4953980;29;20027;-80
2020/12/29 11:35:44;;;;;;;5.85;3.45;;;1.30;99.90;;;;;;4953842;29;20038;-83
2020/12/29 11:38:10;;;;;;;5.65;3.70;;;1.30;99.90;;;;;;4955637;28;20027;-83
2020/12/29 11:40:36;;;;;;;6.45;4.40;;;1.30;99.90;;;;;;4957848;28;20015;-80
2020/12/29 11:43:01;;;;;;;5.13;4.15;;;1.30;99.90;;;;;;4957964;28;20049;-83
2020/12/29 11:45:27;;;;;;;6.03;4.07;;;1.30;99.90;;;;;;4958059;28;20447;-83
2020/12/29 11:47:53;;;;;;;5.32;3.90;;;1.30;99.90;;;;;;4957748;29;20479;-80
2020/12/29 11:50:19;;;;;;;5.40;3.50;;;1.30;99.90;;;;;;4957692;29;20027;-83
2020/12/29 11:52:44;;;;;;;5.90;3.88;;;1.30;99.90;;;;;;4966408;28;20038;-83
2020/12/29 11:55:10;;;;;;;4.28;3.47;;;1.30;99.90;;;;;;4977030;28;20026;-86
2020/12/29 11:57:36;;;;;;;8.77;3.70;;;1.30;99.90;;;;;;4977167;28;20106;-84
2020/12/29 12:00:06;;;;;;;5.28;3.50;;;1.30;99.90;;;;;;4977078;28;20031;-83
2020/12/29 12:02:32;;;;;;;5.15;3.53;;;1.30;99.90;;;;;;4976696;28;20034;-85
2020/12/29 12:04:58;;;;;;;5.28;3.15;;;1.30;99.90;;;;;;4976800;28;20026;-87
2020/12/29 12:07:23;;;;;;;4.45;3.22;;;1.30;99.90;;;;;;4975516;28;20031;-85
2020/12/29 12:09:49;;;;;;;6.43;3.65;;;1.40;99.90;;;;;;4976504;28;20430;-82
2020/12/29 12:12:15;;;;;;;5.72;3.45;;;1.30;99.90;;;;;;4976778;28;20086;-87
2020/12/29 12:14:41;;;;;;;3.53;2.75;;;1.30;99.90;;;;;;4976631;28;20038;-82
2020/12/29 12:17:07;;;;;;;7.55;3.17;;;1.30;99.90;;;;;;4976367;28;20027;-84
2020/12/29 12:19:33;;;;;;;8.02;3.92;;;1.30;99.90;;;;;;4976299;28;20149;-82
2020/12/29 12:22:00;;;;;;;8.52;4.00;;;1.30;99.90;;;;;;4976446;28;20035;-82
2020/12/29 12:24:26;;;;;;;5.75;3.47;;;1.30;99.90;;;;;;4967201;28;20031;-84
2020/12/29 12:26:52;;;;;;;5.18;3.60;;;1.30;99.90;;;;;;4959694;28;20030;-81
2020/12/29 12:29:18;;;;;;;9.60;3.50;;;1.30;99.90;;;;;;4957050;29;20391;-84
2020/12/29 12:31:43;;;;;;;7.95;3.40;;;1.60;99.90;;;;;;4956850;28;20035;-83
2020/12/29 12:34:09;;;;;;;7.28;2.97;;;1.50;99.90;;;;;;4957257;28;20023;-84
2020/12/29 12:36:35;;;;;;;7.35;3.35;;;1.40;99.90;;;;;;4956816;28;20035;-85
2020/12/29 12:39:01;;;;;;;4.80;3.60;;;1.40;99.90;;;;;;4956697;29;20019;-85
2020/12/29 12:41:27;;;;;;;9.55;4.07;;;1.40;99.90;;;;;;4956688;29;20154;-84
2020/12/29 12:43:52;;;;;;;5.32;3.50;;;1.30;99.90;;;;;;4956718;29;20035;-83
2020/12/29 12:46:18;;;;;;;11.90;4.20;;;1.30;99.90;;;;;;4955408;29;20039;-83
2020/12/29 12:48:44;;;;;;;6.32;4.25;;;1.30;99.90;;;;;;4955344;29;20031;-84
2020/12/29 12:51:11;;;;;;;7.20;4.45;;;1.30;99.90;;;;;;4955952;28;20034;-84
2020/12/29 12:53:37;;;;;;;6.43;4.40;;;1.30;99.90;;;;;;4958452;28;20108;-82
2020/12/29 12:56:04;;;;;;;5.32;3.70;;;1.30;99.90;;;;;;4977162;28;20027;-84
2020/12/29 12:58:29;;;;;;;8.63;5.35;;;1.30;99.90;;;;;;4975877;28;20109;-81
2020/12/29 13:00:55;;;;;;;7.40;4.25;;;1.60;99.90;;;;;;4972337;28;20054;-78
2020/12/29 13:03:21;;;;;;;15.20;5.15;;;1.60;99.90;;;;;;4963860;28;20489;-76
2020/12/29 13:05:46;;;;;;;6.97;4.43;;;1.60;99.90;;;;;;4970073;28;20027;-80
2020/12/29 13:08:12;;;;;;;8.45;5.35;;;1.50;99.90;;;;;;4975371;28;20109;-76
2020/12/29 13:10:38;;;;;;;9.85;4.45;;;1.50;99.90;;;;;;4969984;28;20057;-76
2020/12/29 13:13:04;;;;;;;9.63;5.30;;;1.60;99.90;;;;;;4964220;28;20108;-76
2020/12/29 13:15:30;;;;;;;9.88;4.28;;;1.70;99.90;;;;;;4967250;28;20118;-76
2020/12/29 13:17:56;;;;;;;11.32;4.78;;;1.60;99.90;;;;;;4975231;28;20486;-76
2020/12/29 13:20:24;;;;;;;7.55;4.35;;;1.60;99.90;;;;;;4975637;28;20039;-78
2020/12/29 13:22:50;;;;;;;7.22;4.40;;;1.60;99.90;;;;;;4975095;28;20038;-79
2020/12/29 13:25:16;;;;;;;11.38;4.65;;;1.60;99.90;;;;;;4978655;28;20023;-78
2020/12/29 13:27:42;;;;;;;10.07;5.07;;;1.60;99.90;;;;;;4975266;28;20474;-79
2020/12/29 13:30:08;;;;;;;8.43;4.60;;;1.50;99.90;;;;;;4975269;28;20479;-79
2020/12/29 13:32:37;;;;;;;9.63;5.43;;;1.50;99.90;;;;;;4975277;28;20023;-79
2020/12/29 13:35:05;;;;;;;9.60;4.53;;;1.50;99.90;;;;;;4975375;28;20031;-88
2020/12/29 13:37:31;;;;;;;11.38;5.50;;;1.50;99.90;;;;;;4969937;28;20093;-76
2020/12/29 13:39:57;;;;;;;9.85;5.18;;;1.50;99.90;;;;;;4960600;28;20023;-76
2020/12/29 13:42:24;;;;;;;10.23;4.72;;;1.50;99.90;;;;;;4961842;28;20062;-76
2020/12/29 13:44:49;;;;;;;12.05;5.03;;;1.40;99.90;;;;;;4966621;28;20027;-76
2020/12/29 13:47:15;;;;;;;13.05;4.97;;;1.40;99.90;;;;;;4964693;28;20021;-75
2020/12/29 13:49:41;;;;;;;11.23;5.53;;;1.40;99.90;;;;;;4965658;28;20114;-76
2020/12/29 13:52:07;;;;;;;12.85;6.10;;;1.40;99.90;;;;;;4963423;28;20521;-76
2020/12/29 13:54:32;;;;;;;11.43;6.13;;;1.30;99.90;;;;;;4965034;28;20081;-75
2020/12/29 13:56:58;;;;;;;10.05;5.68;;;1.30;99.90;;;;;;4960351;28;20038;-75
2020/12/29 13:59:25;;;;;;;8.40;5.85;;;1.30;99.90;;;;;;4955232;29;20030;-75
2020/12/29 14:01:51;;;;;;;7.63;5.63;;;1.40;99.90;;;;;;4953953;28;20198;-74
2020/12/29 14:04:18;;;;;;;10.25;6.03;;;1.40;99.90;;;;;;4958468;28;20105;-74
2020/12/29 14:06:53;;;;;;;10.82;6.15;;;1.30;99.90;;;;;;4974475;28;20037;-75
2020/12/29 14:09:19;;;;;;;8.23;5.53;;;1.30;99.90;;;;;;4969591;28;20494;-76
2020/12/29 14:11:49;;;;;;;10.48;6.43;;;1.40;99.90;;;;;;4963272;28;20491;-75
2020/12/29 14:14:15;;;;;;;13.20;6.32;;;1.40;99.90;;;;;;4963509;28;20055;-75
2020/12/29 14:16:42;;;;;;;12.40;5.60;;;1.40;99.90;;;;;;4966634;28;20061;-75
2020/12/29 14:19:08;;;;;;;14.45;6.40;;;1.40;99.90;;;;;;4963915;28;20051;-75
2020/12/29 14:21:34;;;;;;;10.32;6.00;;;1.40;99.90;;;;;;4963264;28;20034;-75
2020/12/29 14:24:00;;;;;;;9.45;5.78;;;1.40;99.90;;;;;;4964751;28;20026;-75
2020/12/29 14:26:25;;;;;;;13.23;6.57;;;1.40;99.90;;;;;;4961544;28;20019;-75
2020/12/29 14:28:51;;;;;;;9.00;5.68;;;1.40;99.90;;;;;;4965323;28;20507;-75
2020/12/29 14:31:17;;;;;;;11.43;6.13;;;1.40;99.90;;;;;;4956295;28;20086;-75
2020/12/29 14:33:43;;;;;;;9.23;5.10;;;1.40;99.90;;;;;;4965471;28;20026;-74
2020/12/29 14:36:10;;;;;;;11.52;5.70;;;1.40;99.90;;;;;;4973163;28;20034;-74
2020/12/29 14:38:37;;;;;;;7.80;5.57;;;1.40;99.90;;;;;;4973658;28;20023;-73
2020/12/29 14:41:04;;;;;;;9.77;6.00;;;1.40;99.90;;;;;;4973473;28;20379;-74
2020/12/29 14:43:29;;;;;;;9.35;6.05;;;1.40;99.90;;;;;;4973116;28;20046;-73
2020/12/29 14:45:55;;;;;;;8.35;6.22;;;1.40;99.90;;;;;;4972850;28;20022;-74
2020/12/29 14:48:21;;;;;;;11.02;6.30;;;1.40;99.90;;;;;;4964530;28;20449;-74
2020/12/29 14:50:46;;;;;;;11.77;5.32;;;1.50;99.90;;;;;;4965100;28;20368;-74
2020/12/29 14:53:12;;;;;;;9.02;5.25;;;1.50;99.90;;;;;;4964244;28;20070;-74
2020/12/29 14:55:39;;;;;;;11.40;5.60;;;1.50;99.90;;;;;;4962514;28;20078;-74
2020/12/29 14:58:05;;;;;;;10.85;5.85;;;1.50;99.90;;;;;;4962702;28;20046;-74
2020/12/29 15:00:30;;;;;;;11.25;5.10;;;1.50;99.90;;;;;;4964165;28;20111;-74
2020/12/29 15:02:56;;;;;;;6.68;5.03;;;1.40;99.90;;;;;;4962140;28;20102;-74
2020/12/29 15:05:22;;;;;;;13.88;5.88;;;1.40;99.90;;;;;;4965198;28;20026;-73
2020/12/29 15:07:47;;;;;;;8.27;5.15;;;1.40;99.90;;;;;;4972847;28;20031;-80
2020/12/29 15:10:13;;;;;;;10.05;5.05;;;1.40;99.90;;;;;;4965052;28;20109;-79
2020/12/29 15:12:39;;;;;;;8.57;5.75;;;1.40;99.90;;;;;;4969216;28;20105;-79
2020/12/29 15:15:05;;;;;;;8.93;5.70;;;1.40;99.90;;;;;;4962048;28;20043;-79
2020/12/29 15:17:31;;;;;;;8.85;5.80;;;1.40;99.90;;;;;;4965495;28;20038;-80
2020/12/29 15:19:57;;;;;;;9.65;6.63;;;1.40;99.90;;;;;;4976042;28;20101;-80
2020/12/29 15:22:23;;;;;;;12.80;5.93;;;1.40;99.90;;;;;;4975383;28;20034;-85
2020/12/29 15:24:49;;;;;;;10.88;5.15;;;1.40;99.90;;;;;;4971877;28;20053;-84
2020/12/29 15:27:16;;;;;;;7.43;5.45;;;1.40;99.90;;;;;;4976500;28;20027;-84
2020/12/29 15:29:42;;;;;;;7.55;5.15;;;1.40;99.90;;;;;;4974285;28;20031;-82
2020/12/29 15:32:08;;;;;;;10.90;6.13;;;1.40;99.90;;;;;;4973361;28;20019;-82
2020/12/29 15:34:34;;;;;;;8.82;5.95;;;1.40;99.90;;;;;;4973316;28;20081;-82
2020/12/29 15:37:00;;;;;;;7.63;5.18;;;1.40;99.90;;;;;;4971846;28;20038;-82
2020/12/29 15:39:25;;;;;;;7.25;4.97;;;1.40;99.90;;;;;;4971815;28;20035;-82
2020/12/29 15:41:51;;;;;;;8.73;5.50;;;1.40;99.90;;;;;;4972106;28;20099;-82
2020/12/29 15:44:18;;;;;;;10.25;4.82;;;1.40;99.90;;;;;;4964030;28;20027;-82
2020/12/29 15:46:49;;;;;;;10.23;5.45;;;1.40;99.90;;;;;;4963204;28;20035;-81
2020/12/29 15:49:15;;;;;;;7.38;4.40;;;1.40;99.90;;;;;;4966444;28;20034;-80
2020/12/29 15:51:41;;;;;;;8.65;4.90;;;1.40;99.90;;;;;;4971206;28;20035;-86
2020/12/29 15:54:06;;;;;;;7.63;4.38;;;1.40;99.90;;;;;;4953311;29;20119;-85
2020/12/29 15:56:32;;;;;;;6.97;4.95;;;1.30;99.90;;;;;;4953591;29;20027;-84
2020/12/29 15:58:58;;;;;;;11.43;5.25;;;1.30;99.90;;;;;;4968270;28;20164;-87
2020/12/29 16:01:24;;;;;;;10.48;4.70;;;1.30;99.90;;;;;;4961959;28;20031;-86
2020/12/29 16:03:50;;;;;;;7.47;4.60;;;1.30;99.90;;;;;;4964606;28;20054;-91
2020/12/29 16:06:15;;;;;;;7.30;4.80;;;1.30;99.90;;;;;;4963653;28;20114;-87
2020/12/29 16:08:42;;;;;;;9.68;5.35;;;1.30;99.90;;;;;;4964199;28;20027;-83
2020/12/29 16:11:08;;;;;;;6.80;4.97;;;1.30;99.90;;;;;;4953449;28;20098;-85
2020/12/29 16:13:38;;;;;;;8.15;5.60;;;1.30;99.90;;;;;;4958682;28;20051;-87
2020/12/29 16:16:04;;;;;;;11.35;4.78;;;1.30;99.90;;;;;;4956888;28;20032;-89
2020/12/29 16:18:29;;;;;;;10.50;5.30;;;1.30;99.90;;;;;;4963779;28;20047;-85
2020/12/29 16:20:56;;;;;;;9.07;4.28;;;1.30;99.90;;;;;;4954754;28;20118;-88
2020/12/29 16:23:22;;;;;;;9.55;5.57;;;1.30;99.90;;;;;;4953313;29;20175;-87
2020/12/29 16:25:47;;;;;;;9.05;5.10;;;1.30;99.90;;;;;;4957814;28;20634;-88
2020/12/29 16:28:14;;;;;;;9.15;5.38;;;1.30;99.90;;;;;;4964817;28;20045;-87
2020/12/29 16:30:39;;;;;;;10.07;5.10;;;1.30;99.90;;;;;;4970307;28;20109;-85
2020/12/29 16:33:06;;;;;;;9.07;4.75;;;1.20;99.90;;;;;;4966311;28;20055;-85
2020/12/29 16:35:32;;;;;;;10.15;5.25;;;1.30;99.90;;;;;;4964863;28;20027;-83
2020/12/29 16:37:58;;;;;;;9.02;4.88;;;1.30;99.90;;;;;;4965949;28;20042;-85
2020/12/29 16:40:24;;;;;;;6.25;4.55;;;1.30;99.90;;;;;;4963456;28;20386;-88
2020/12/29 16:42:53;;;;;;;6.75;4.68;;;1.30;99.90;;;;;;4974986;28;20035;-76
2020/12/29 16:45:19;;;;;;;7.10;5.35;;;1.20;99.90;;;;;;4975545;28;20489;-78
2020/12/29 16:47:45;;;;;;;8.10;5.32;;;1.30;99.90;;;;;;4975472;28;20492;-74
2020/12/29 16:50:10;;;;;;;8.52;5.40;;;1.30;99.90;;;;;;4963731;28;20091;-76
2020/12/29 16:52:36;;;;;;;8.18;4.88;;;1.30;99.90;;;;;;4956140;29;20467;-76
2020/12/29 16:55:02;;;;;;;6.93;4.50;;;1.40;99.90;;;;;;4956026;29;20028;-77
2020/12/29 16:57:28;;;;;;;7.60;5.15;;;1.60;99.90;;;;;;4956046;28;20038;-77
2020/12/29 16:59:54;;;;;;;11.80;6.00;;;1.50;99.90;;;;;;4956625;29;20024;-77
2020/12/29 17:02:19;;;;;;;12.38;5.13;;;1.50;99.90;;;;;;4956585;28;20036;-77
2020/12/29 17:04:45;;;;;;;8.20;5.45;;;1.40;99.90;;;;;;4956804;29;20536;-77
2020/12/29 17:07:11;;;;;;;11.20;4.95;;;1.40;99.90;;;;;;4956454;28;20585;-77
2020/12/29 17:09:37;;;;;;;6.45;4.40;;;1.40;99.90;;;;;;4956637;28;20144;-77
2020/12/29 17:12:04;;;;;;;10.05;6.35;;;1.30;99.90;;;;;;4956134;29;20039;-77
2020/12/29 17:14:30;;;;;;;11.38;5.38;;;1.30;99.90;;;;;;4957049;29;20027;-79
2020/12/29 17:16:56;;;;;;;8.50;5.07;;;1.40;99.90;;;;;;4962816;29;20031;-80
2020/12/29 17:19:22;;;;;;;9.70;5.18;;;1.30;99.90;;;;;;4954623;28;20051;-80
2020/12/29 17:21:50;;;;;;;8.45;4.75;;;1.30;99.90;;;;;;4955875;29;20035;-76
2020/12/29 17:24:16;;;;;;;13.38;4.85;;;1.40;99.90;;;;;;4958572;28;20046;-77
2020/12/29 17:26:42;;;;;;;11.98;5.95;;;1.40;99.90;;;;;;4975191;28;20398;-81
2020/12/29 17:29:07;;;;;;;11.02;5.38;;;1.40;99.90;;;;;;4967220;28;20110;-78
2020/12/29 17:31:33;;;;;;;9.57;5.50;;;1.40;99.90;;;;;;4958441;28;20459;-77
2020/12/29 17:34:00;;;;;;;10.10;4.55;;;1.40;99.90;;;;;;4955780;29;20038;-77
2020/12/29 17:36:28;;;;;;;7.25;4.38;;;1.40;99.90;;;;;;4955548;28;20034;-77
2020/12/29 17:38:55;;;;;;;10.32;5.30;;;1.30;99.90;;;;;;4955756;29;20023;-84
2020/12/29 17:41:22;;;;;;;8.43;6.03;;;1.40;99.90;;;;;;4962297;28;20027;-81
2020/12/29 17:43:50;;;;;;;7.20;4.60;;;1.40;99.90;;;;;;4955708;29;20034;-78
2020/12/29 17:46:21;;;;;;;6.70;5.25;;;1.40;99.90;;;;;;4955429;29;20027;-77
2020/12/29 17:48:48;;;;;;;13.43;5.45;;;1.40;99.90;;;;;;4955615;29;20479;-78
2020/12/29 17:51:19;;;;;;;9.48;5.45;;;1.40;99.90;;;;;;4955308;29;20074;-77
2020/12/29 17:53:45;;;;;;;8.77;5.30;;;1.40;99.90;;;;;;4955511;29;20140;-78
2020/12/29 17:56:20;;;;;;;8.73;4.95;;;1.40;99.90;;;;;;4955305;29;20521;-77
2020/12/29 17:58:46;;;;;;;7.28;4.57;;;1.40;99.90;;;;;;4955403;29;20477;-78
2020/12/29 18:01:12;;;;;;;7.18;4.60;;;1.40;99.90;;;;;;4955227;29;20035;-80
2020/12/29 18:03:37;;;;;;;9.15;4.88;;;1.40;99.90;;;;;;4938002;29;20110;-79
2020/12/29 18:06:03;;;;;;;8.40;4.45;;;1.40;99.90;;;;;;4955114;29;20047;-81
2020/12/29 18:08:29;;;;;;;7.95;4.57;;;1.40;99.90;;;;;;4963696;28;20027;-86
2020/12/29 18:10:55;;;;;;;9.55;3.80;;;1.40;99.90;;;;;;4970941;28;20031;-86
2020/12/29 18:13:20;;;;;;;8.68;4.53;;;1.40;99.90;;;;;;4973840;28;20082;-88
2020/12/29 18:15:49;;;;;;;9.90;4.72;;;1.30;99.90;;;;;;4958428;28;20031;-77